sensor_id;sensor_type;location;lat;lon;timestamp;P1;durP1;ratioP1;P2;durP2;ratioP2
5391;SDS011;2719;53.624;9.786;2022-10-31T00:01:24;18.80;;;10.13;;
5391;SDS011;2719;53.624;9.786;2022-10-31T00:03:53;16.43;;;8.07;;
5391;SDS011;2719;53.624;9.786;2022-10-31T00:06:19;15.13;;;8.40;;
5391;SDS011;2719;53.624;9.786;2022-10-31T00:08:51;19.27;;;9.00;;
5391;SDS011;2719;53.624;9.786;2022-10-31T00:11:18;16.90;;;7.83;;
5391;SDS011;2719;53.624;9.786;2022-10-31T00:13:45;16.00;;;7.70;;
5391;SDS011;2719;53.624;9.786;2022-10-31T00:16:15;20.33;;;10.23;;
5391;SDS011;2719;53.624;9.786;2022-10-31T00:18:42;22.23;;;9.53;;
5391;SDS011;2719;53.624;9.786;2022-10-31T00:21:09;17.70;;;7.77;;
5391;SDS011;2719;53.624;9.786;2022-10-31T00:23:36;25.43;;;9.47;;
5391;SDS011;2719;53.624;9.786;2022-10-31T00:26:04;23.57;;;10.07;;
5391;SDS011;2719;53.624;9.786;2022-10-31T00:28:32;16.40;;;8.03;;
5391;SDS011;2719;53.624;9.786;2022-10-31T00:30:59;26.87;;;10.13;;
5391;SDS011;2719;53.624;9.786;2022-10-31T00:33:26;22.90;;;10.53;;
5391;SDS011;2719;53.624;9.786;2022-10-31T00:35:52;24.60;;;9.67;;
5391;SDS011;2719;53.624;9.786;2022-10-31T00:38:19;19.83;;;9.70;;
5391;SDS011;2719;53.624;9.786;2022-10-31T00:40:46;23.00;;;11.40;;
5391;SDS011;2719;53.624;9.786;2022-10-31T00:43:13;15.13;;;9.17;;
5391;SDS011;2719;53.624;9.786;2022-10-31T00:45:40;16.20;;;7.83;;
5391;SDS011;2719;53.624;9.786;2022-10-31T00:48:07;15.50;;;8.77;;
5391;SDS011;2719;53.624;9.786;2022-10-31T00:50:34;16.37;;;8.83;;
5391;SDS011;2719;53.624;9.786;2022-10-31T00:53:01;25.57;;;9.90;;
5391;SDS011;2719;53.624;9.786;2022-10-31T00:55:28;19.30;;;9.50;;
5391;SDS011;2719;53.624;9.786;2022-10-31T00:57:55;20.70;;;8.13;;
5391;SDS011;2719;53.624;9.786;2022-10-31T01:00:23;23.40;;;7.93;;
5391;SDS011;2719;53.624;9.786;2022-10-31T01:02:49;24.40;;;8.10;;
5391;SDS011;2719;53.624;9.786;2022-10-31T01:05:16;18.33;;;8.83;;
5391;SDS011;2719;53.624;9.786;2022-10-31T01:07:43;21.13;;;8.60;;
5391;SDS011;2719;53.624;9.786;2022-10-31T01:10:10;17.00;;;8.20;;
5391;SDS011;2719;53.624;9.786;2022-10-31T01:12:37;18.27;;;8.53;;
5391;SDS011;2719;53.624;9.786;2022-10-31T01:15:04;20.60;;;10.10;;
5391;SDS011;2719;53.624;9.786;2022-10-31T01:17:33;25.57;;;9.40;;
5391;SDS011;2719;53.624;9.786;2022-10-31T01:20:00;27.50;;;10.43;;
5391;SDS011;2719;53.624;9.786;2022-10-31T01:22:27;22.90;;;10.30;;
5391;SDS011;2719;53.624;9.786;2022-10-31T01:24:53;15.83;;;8.83;;
5391;SDS011;2719;53.624;9.786;2022-10-31T01:27:20;20.77;;;9.87;;
5391;SDS011;2719;53.624;9.786;2022-10-31T01:29:46;18.40;;;9.43;;
5391;SDS011;2719;53.624;9.786;2022-10-31T01:32:13;34.17;;;10.40;;
5391;SDS011;2719;53.624;9.786;2022-10-31T01:34:41;18.20;;;10.63;;
5391;SDS011;2719;53.624;9.786;2022-10-31T01:37:08;21.67;;;10.27;;
5391;SDS011;2719;53.624;9.786;2022-10-31T01:39:34;25.53;;;11.13;;
5391;SDS011;2719;53.624;9.786;2022-10-31T01:42:01;26.13;;;11.90;;
5391;SDS011;2719;53.624;9.786;2022-10-31T01:47:19;32.03;;;12.50;;
5391;SDS011;2719;53.624;9.786;2022-10-31T01:49:55;29.70;;;11.60;;
5391;SDS011;2719;53.624;9.786;2022-10-31T01:52:24;24.97;;;13.53;;
5391;SDS011;2719;53.624;9.786;2022-10-31T01:54:53;22.13;;;11.37;;
5391;SDS011;2719;53.624;9.786;2022-10-31T01:57:24;26.10;;;12.33;;
5391;SDS011;2719;53.624;9.786;2022-10-31T01:59:53;20.97;;;11.47;;
5391;SDS011;2719;53.624;9.786;2022-10-31T02:02:24;28.93;;;12.10;;
5391;SDS011;2719;53.624;9.786;2022-10-31T02:04:54;24.20;;;11.90;;
5391;SDS011;2719;53.624;9.786;2022-10-31T02:07:22;21.77;;;11.57;;
5391;SDS011;2719;53.624;9.786;2022-10-31T02:09:52;25.83;;;12.33;;
5391;SDS011;2719;53.624;9.786;2022-10-31T02:12:21;25.33;;;12.73;;
5391;SDS011;2719;53.624;9.786;2022-10-31T02:14:48;37.63;;;13.03;;
5391;SDS011;2719;53.624;9.786;2022-10-31T02:17:14;27.80;;;12.77;;
5391;SDS011;2719;53.624;9.786;2022-10-31T02:19:44;31.43;;;12.60;;
5391;SDS011;2719;53.624;9.786;2022-10-31T02:22:20;31.73;;;14.07;;
5391;SDS011;2719;53.624;9.786;2022-10-31T02:24:58;34.93;;;14.63;;
5391;SDS011;2719;53.624;9.786;2022-10-31T02:27:43;29.43;;;13.10;;
5391;SDS011;2719;53.624;9.786;2022-10-31T02:30:35;23.90;;;12.90;;
5391;SDS011;2719;53.624;9.786;2022-10-31T02:33:15;24.90;;;12.90;;
5391;SDS011;2719;53.624;9.786;2022-10-31T02:35:51;24.20;;;12.50;;
5391;SDS011;2719;53.624;9.786;2022-10-31T02:38:26;33.20;;;13.50;;
5391;SDS011;2719;53.624;9.786;2022-10-31T02:41:04;22.97;;;12.33;;
5391;SDS011;2719;53.624;9.786;2022-10-31T02:43:40;26.40;;;12.70;;
5391;SDS011;2719;53.624;9.786;2022-10-31T02:46:14;38.40;;;13.67;;
5391;SDS011;2719;53.624;9.786;2022-10-31T02:48:49;26.90;;;12.10;;
5391;SDS011;2719;53.624;9.786;2022-10-31T02:51:20;28.90;;;13.13;;
5391;SDS011;2719;53.624;9.786;2022-10-31T02:53:47;31.00;;;13.87;;
5391;SDS011;2719;53.624;9.786;2022-10-31T02:56:15;43.33;;;14.90;;
5391;SDS011;2719;53.624;9.786;2022-10-31T02:58:44;27.67;;;12.77;;
5391;SDS011;2719;53.624;9.786;2022-10-31T03:01:20;27.80;;;14.70;;
5391;SDS011;2719;53.624;9.786;2022-10-31T03:04:01;25.80;;;12.90;;
5391;SDS011;2719;53.624;9.786;2022-10-31T03:06:44;27.63;;;11.70;;
5391;SDS011;2719;53.624;9.786;2022-10-31T03:09:16;36.10;;;14.33;;
5391;SDS011;2719;53.624;9.786;2022-10-31T03:11:52;34.53;;;13.57;;
5391;SDS011;2719;53.624;9.786;2022-10-31T03:14:24;28.03;;;13.77;;
5391;SDS011;2719;53.624;9.786;2022-10-31T03:16:59;28.33;;;13.13;;
5391;SDS011;2719;53.624;9.786;2022-10-31T03:19:34;34.50;;;13.57;;
5391;SDS011;2719;53.624;9.786;2022-10-31T03:22:07;37.73;;;15.00;;
5391;SDS011;2719;53.624;9.786;2022-10-31T03:24:41;35.80;;;13.30;;
5391;SDS011;2719;53.624;9.786;2022-10-31T03:27:09;24.40;;;12.40;;
5391;SDS011;2719;53.624;9.786;2022-10-31T03:29:39;25.80;;;12.53;;
5391;SDS011;2719;53.624;9.786;2022-10-31T03:32:09;36.83;;;13.33;;
5391;SDS011;2719;53.624;9.786;2022-10-31T03:34:39;26.83;;;14.30;;
5391;SDS011;2719;53.624;9.786;2022-10-31T03:37:10;41.97;;;14.03;;
5391;SDS011;2719;53.624;9.786;2022-10-31T03:39:40;29.57;;;13.83;;
5391;SDS011;2719;53.624;9.786;2022-10-31T03:42:09;26.00;;;12.57;;
5391;SDS011;2719;53.624;9.786;2022-10-31T03:44:38;28.67;;;13.10;;
5391;SDS011;2719;53.624;9.786;2022-10-31T03:47:08;25.97;;;12.10;;
5391;SDS011;2719;53.624;9.786;2022-10-31T03:49:35;41.80;;;13.57;;
5391;SDS011;2719;53.624;9.786;2022-10-31T03:52:05;28.70;;;13.03;;
5391;SDS011;2719;53.624;9.786;2022-10-31T03:54:40;32.23;;;14.50;;
5391;SDS011;2719;53.624;9.786;2022-10-31T03:57:11;35.17;;;14.90;;
5391;SDS011;2719;53.624;9.786;2022-10-31T03:59:43;40.13;;;13.50;;
5391;SDS011;2719;53.624;9.786;2022-10-31T04:02:14;35.73;;;15.83;;
5391;SDS011;2719;53.624;9.786;2022-10-31T04:04:42;24.87;;;12.07;;
5391;SDS011;2719;53.624;9.786;2022-10-31T04:07:11;34.27;;;15.23;;
5391;SDS011;2719;53.624;9.786;2022-10-31T04:09:40;29.50;;;14.50;;
5391;SDS011;2719;53.624;9.786;2022-10-31T04:12:10;26.90;;;13.10;;
5391;SDS011;2719;53.624;9.786;2022-10-31T04:14:41;25.77;;;15.03;;
5391;SDS011;2719;53.624;9.786;2022-10-31T04:17:11;31.37;;;15.60;;
5391;SDS011;2719;53.624;9.786;2022-10-31T04:19:40;29.30;;;14.43;;
5391;SDS011;2719;53.624;9.786;2022-10-31T04:22:06;34.20;;;14.77;;
5391;SDS011;2719;53.624;9.786;2022-10-31T04:24:34;35.67;;;15.60;;
5391;SDS011;2719;53.624;9.786;2022-10-31T04:27:03;43.03;;;17.00;;
5391;SDS011;2719;53.624;9.786;2022-10-31T04:29:29;34.40;;;15.83;;
5391;SDS011;2719;53.624;9.786;2022-10-31T04:31:56;38.23;;;16.27;;
5391;SDS011;2719;53.624;9.786;2022-10-31T04:34:22;32.90;;;15.53;;
5391;SDS011;2719;53.624;9.786;2022-10-31T04:36:49;36.00;;;15.93;;
5391;SDS011;2719;53.624;9.786;2022-10-31T04:39:16;32.23;;;13.93;;
5391;SDS011;2719;53.624;9.786;2022-10-31T04:41:44;31.97;;;16.17;;
5391;SDS011;2719;53.624;9.786;2022-10-31T04:44:10;38.57;;;15.40;;
5391;SDS011;2719;53.624;9.786;2022-10-31T04:46:37;36.87;;;14.73;;
5391;SDS011;2719;53.624;9.786;2022-10-31T04:49:03;27.10;;;15.13;;
5391;SDS011;2719;53.624;9.786;2022-10-31T04:51:30;31.80;;;15.97;;
5391;SDS011;2719;53.624;9.786;2022-10-31T04:53:57;23.90;;;14.90;;
5391;SDS011;2719;53.624;9.786;2022-10-31T04:56:23;34.00;;;16.93;;
5391;SDS011;2719;53.624;9.786;2022-10-31T04:58:51;29.33;;;16.17;;
5391;SDS011;2719;53.624;9.786;2022-10-31T05:01:18;24.73;;;15.83;;
5391;SDS011;2719;53.624;9.786;2022-10-31T05:03:45;23.60;;;13.80;;
5391;SDS011;2719;53.624;9.786;2022-10-31T05:06:11;32.07;;;15.00;;
5391;SDS011;2719;53.624;9.786;2022-10-31T05:08:38;29.30;;;14.70;;
5391;SDS011;2719;53.624;9.786;2022-10-31T05:11:04;26.70;;;15.63;;
5391;SDS011;2719;53.624;9.786;2022-10-31T05:13:31;34.47;;;16.00;;
5391;SDS011;2719;53.624;9.786;2022-10-31T05:15:59;30.53;;;14.47;;
5391;SDS011;2719;53.624;9.786;2022-10-31T05:18:26;30.10;;;13.80;;
5391;SDS011;2719;53.624;9.786;2022-10-31T05:20:52;32.00;;;16.67;;
5391;SDS011;2719;53.624;9.786;2022-10-31T05:23:19;42.60;;;14.97;;
5391;SDS011;2719;53.624;9.786;2022-10-31T05:25:45;27.80;;;14.60;;
5391;SDS011;2719;53.624;9.786;2022-10-31T05:28:12;34.40;;;15.00;;
5391;SDS011;2719;53.624;9.786;2022-10-31T05:30:39;23.50;;;13.30;;
5391;SDS011;2719;53.624;9.786;2022-10-31T05:33:07;36.77;;;14.43;;
5391;SDS011;2719;53.624;9.786;2022-10-31T05:35:33;34.77;;;16.20;;
5391;SDS011;2719;53.624;9.786;2022-10-31T05:38:00;27.80;;;14.90;;
5391;SDS011;2719;53.624;9.786;2022-10-31T05:40:27;41.27;;;14.90;;
5391;SDS011;2719;53.624;9.786;2022-10-31T05:42:54;30.63;;;13.70;;
5391;SDS011;2719;53.624;9.786;2022-10-31T05:45:23;28.67;;;15.73;;
5391;SDS011;2719;53.624;9.786;2022-10-31T05:47:50;30.00;;;14.00;;
5391;SDS011;2719;53.624;9.786;2022-10-31T05:50:19;23.50;;;13.90;;
5391;SDS011;2719;53.624;9.786;2022-10-31T05:52:46;33.53;;;14.23;;
5391;SDS011;2719;53.624;9.786;2022-10-31T05:55:12;24.10;;;13.13;;
5391;SDS011;2719;53.624;9.786;2022-10-31T05:57:39;32.50;;;13.73;;
5391;SDS011;2719;53.624;9.786;2022-10-31T06:00:06;26.10;;;15.50;;
5391;SDS011;2719;53.624;9.786;2022-10-31T06:02:34;22.40;;;12.63;;
5391;SDS011;2719;53.624;9.786;2022-10-31T06:05:00;30.20;;;12.50;;
5391;SDS011;2719;53.624;9.786;2022-10-31T06:07:32;39.50;;;13.53;;
5391;SDS011;2719;53.624;9.786;2022-10-31T06:10:00;30.50;;;13.37;;
5391;SDS011;2719;53.624;9.786;2022-10-31T06:12:27;20.97;;;11.83;;
5391;SDS011;2719;53.624;9.786;2022-10-31T06:14:54;26.60;;;12.63;;
5391;SDS011;2719;53.624;9.786;2022-10-31T06:17:20;21.63;;;12.33;;
5391;SDS011;2719;53.624;9.786;2022-10-31T06:19:47;16.73;;;11.27;;
5391;SDS011;2719;53.624;9.786;2022-10-31T06:22:14;21.93;;;12.10;;
5391;SDS011;2719;53.624;9.786;2022-10-31T06:24:42;23.47;;;11.50;;
5391;SDS011;2719;53.624;9.786;2022-10-31T06:27:09;17.20;;;10.90;;
5391;SDS011;2719;53.624;9.786;2022-10-31T06:29:35;20.90;;;12.67;;
5391;SDS011;2719;53.624;9.786;2022-10-31T06:32:02;27.23;;;13.30;;
5391;SDS011;2719;53.624;9.786;2022-10-31T06:34:28;20.60;;;10.37;;
5391;SDS011;2719;53.624;9.786;2022-10-31T06:36:55;48.10;;;12.60;;
5391;SDS011;2719;53.624;9.786;2022-10-31T06:39:21;37.10;;;12.53;;
5391;SDS011;2719;53.624;9.786;2022-10-31T06:41:49;23.70;;;11.70;;
5391;SDS011;2719;53.624;9.786;2022-10-31T06:44:16;20.50;;;11.80;;
5391;SDS011;2719;53.624;9.786;2022-10-31T06:46:43;30.13;;;11.67;;
5391;SDS011;2719;53.624;9.786;2022-10-31T06:49:11;25.20;;;11.03;;
5391;SDS011;2719;53.624;9.786;2022-10-31T06:51:38;22.80;;;11.10;;
5391;SDS011;2719;53.624;9.786;2022-10-31T06:54:04;19.63;;;10.90;;
5391;SDS011;2719;53.624;9.786;2022-10-31T06:56:31;20.90;;;10.73;;
5391;SDS011;2719;53.624;9.786;2022-10-31T06:58:59;27.03;;;11.63;;
5391;SDS011;2719;53.624;9.786;2022-10-31T07:01:26;27.13;;;10.43;;
5391;SDS011;2719;53.624;9.786;2022-10-31T07:03:52;34.77;;;11.03;;
5391;SDS011;2719;53.624;9.786;2022-10-31T07:06:19;36.73;;;11.20;;
5391;SDS011;2719;53.624;9.786;2022-10-31T07:08:46;17.10;;;10.97;;
5391;SDS011;2719;53.624;9.786;2022-10-31T07:11:12;36.83;;;9.77;;
5391;SDS011;2719;53.624;9.786;2022-10-31T07:13:39;26.00;;;10.53;;
5391;SDS011;2719;53.624;9.786;2022-10-31T07:16:08;26.57;;;9.30;;
5391;SDS011;2719;53.624;9.786;2022-10-31T07:18:36;16.20;;;9.97;;
5391;SDS011;2719;53.624;9.786;2022-10-31T07:21:03;20.33;;;7.60;;
5391;SDS011;2719;53.624;9.786;2022-10-31T07:23:30;26.37;;;8.40;;
5391;SDS011;2719;53.624;9.786;2022-10-31T07:25:58;36.97;;;9.30;;
5391;SDS011;2719;53.624;9.786;2022-10-31T07:28:25;34.23;;;7.57;;
5391;SDS011;2719;53.624;9.786;2022-10-31T07:30:53;26.67;;;8.50;;
5391;SDS011;2719;53.624;9.786;2022-10-31T07:33:22;13.20;;;8.63;;
5391;SDS011;2719;53.624;9.786;2022-10-31T07:35:50;18.80;;;7.83;;
5391;SDS011;2719;53.624;9.786;2022-10-31T07:38:17;19.33;;;8.70;;
5391;SDS011;2719;53.624;9.786;2022-10-31T07:40:48;16.50;;;8.27;;
5391;SDS011;2719;53.624;9.786;2022-10-31T07:43:16;35.73;;;7.57;;
5391;SDS011;2719;53.624;9.786;2022-10-31T07:45:43;19.70;;;7.20;;
5391;SDS011;2719;53.624;9.786;2022-10-31T07:48:14;25.83;;;8.00;;
5391;SDS011;2719;53.624;9.786;2022-10-31T07:50:42;19.37;;;7.80;;
5391;SDS011;2719;53.624;9.786;2022-10-31T07:53:11;26.83;;;8.00;;
5391;SDS011;2719;53.624;9.786;2022-10-31T07:55:39;23.50;;;8.93;;
5391;SDS011;2719;53.624;9.786;2022-10-31T07:58:06;24.60;;;8.17;;
5391;SDS011;2719;53.624;9.786;2022-10-31T08:00:35;26.83;;;7.13;;
5391;SDS011;2719;53.624;9.786;2022-10-31T08:03:03;14.00;;;7.83;;
5391;SDS011;2719;53.624;9.786;2022-10-31T08:05:32;20.60;;;7.70;;
5391;SDS011;2719;53.624;9.786;2022-10-31T08:08:03;18.20;;;8.10;;
5391;SDS011;2719;53.624;9.786;2022-10-31T08:10:31;12.60;;;7.73;;
5391;SDS011;2719;53.624;9.786;2022-10-31T08:13:00;62.50;;;9.23;;
5391;SDS011;2719;53.624;9.786;2022-10-31T08:15:28;10.43;;;7.00;;
5391;SDS011;2719;53.624;9.786;2022-10-31T08:17:56;11.63;;;7.80;;
5391;SDS011;2719;53.624;9.786;2022-10-31T08:20:24;13.20;;;7.60;;
5391;SDS011;2719;53.624;9.786;2022-10-31T08:22:55;11.20;;;7.50;;
5391;SDS011;2719;53.624;9.786;2022-10-31T08:25:24;10.13;;;6.90;;
5391;SDS011;2719;53.624;9.786;2022-10-31T08:27:53;29.83;;;6.30;;
5391;SDS011;2719;53.624;9.786;2022-10-31T08:30:22;16.67;;;7.03;;
5391;SDS011;2719;53.624;9.786;2022-10-31T08:33:00;10.90;;;7.40;;
5391;SDS011;2719;53.624;9.786;2022-10-31T08:35:29;8.70;;;6.00;;
5391;SDS011;2719;53.624;9.786;2022-10-31T08:37:57;14.50;;;6.30;;
5391;SDS011;2719;53.624;9.786;2022-10-31T08:40:25;11.80;;;6.77;;
5391;SDS011;2719;53.624;9.786;2022-10-31T08:42:56;10.93;;;6.57;;
5391;SDS011;2719;53.624;9.786;2022-10-31T08:45:24;12.10;;;6.90;;
5391;SDS011;2719;53.624;9.786;2022-10-31T08:47:51;9.20;;;5.73;;
5391;SDS011;2719;53.624;9.786;2022-10-31T08:50:18;10.20;;;5.70;;
5391;SDS011;2719;53.624;9.786;2022-10-31T08:52:45;11.17;;;6.03;;
5391;SDS011;2719;53.624;9.786;2022-10-31T08:55:11;14.03;;;6.70;;
5391;SDS011;2719;53.624;9.786;2022-10-31T08:57:39;20.23;;;6.80;;
5391;SDS011;2719;53.624;9.786;2022-10-31T09:00:06;21.73;;;6.30;;
5391;SDS011;2719;53.624;9.786;2022-10-31T09:02:34;10.83;;;7.17;;
5391;SDS011;2719;53.624;9.786;2022-10-31T09:05:03;9.00;;;6.70;;
5391;SDS011;2719;53.624;9.786;2022-10-31T09:07:30;14.50;;;6.43;;
5391;SDS011;2719;53.624;9.786;2022-10-31T09:09:57;10.47;;;7.23;;
5391;SDS011;2719;53.624;9.786;2022-10-31T09:12:23;10.60;;;7.43;;
5391;SDS011;2719;53.624;9.786;2022-10-31T09:14:51;11.13;;;7.83;;
5391;SDS011;2719;53.624;9.786;2022-10-31T09:17:18;11.27;;;6.80;;
5391;SDS011;2719;53.624;9.786;2022-10-31T09:19:45;15.27;;;7.20;;
5391;SDS011;2719;53.624;9.786;2022-10-31T09:22:12;9.80;;;7.00;;
5391;SDS011;2719;53.624;9.786;2022-10-31T09:24:38;14.30;;;7.10;;
5391;SDS011;2719;53.624;9.786;2022-10-31T09:27:05;10.90;;;7.10;;
5391;SDS011;2719;53.624;9.786;2022-10-31T09:29:34;12.43;;;7.50;;
5391;SDS011;2719;53.624;9.786;2022-10-31T09:32:02;11.57;;;7.53;;
5391;SDS011;2719;53.624;9.786;2022-10-31T09:34:28;13.73;;;8.00;;
5391;SDS011;2719;53.624;9.786;2022-10-31T09:36:55;11.40;;;8.00;;
5391;SDS011;2719;53.624;9.786;2022-10-31T09:39:22;12.47;;;8.47;;
5391;SDS011;2719;53.624;9.786;2022-10-31T09:42:02;12.70;;;7.60;;
5391;SDS011;2719;53.624;9.786;2022-10-31T09:44:44;12.83;;;7.80;;
5391;SDS011;2719;53.624;9.786;2022-10-31T09:47:20;15.83;;;8.07;;
5391;SDS011;2719;53.624;9.786;2022-10-31T09:49:57;12.43;;;8.00;;
5391;SDS011;2719;53.624;9.786;2022-10-31T09:52:33;12.20;;;8.10;;
5391;SDS011;2719;53.624;9.786;2022-10-31T09:55:04;13.70;;;8.07;;
5391;SDS011;2719;53.624;9.786;2022-10-31T09:57:38;15.00;;;8.67;;
5391;SDS011;2719;53.624;9.786;2022-10-31T10:00:11;14.83;;;7.77;;
5391;SDS011;2719;53.624;9.786;2022-10-31T10:02:44;19.10;;;9.10;;
5391;SDS011;2719;53.624;9.786;2022-10-31T10:05:14;16.30;;;7.73;;
5391;SDS011;2719;53.624;9.786;2022-10-31T10:07:49;10.47;;;6.90;;
5391;SDS011;2719;53.624;9.786;2022-10-31T10:10:23;17.90;;;9.10;;
5391;SDS011;2719;53.624;9.786;2022-10-31T10:13:04;16.63;;;7.77;;
5391;SDS011;2719;53.624;9.786;2022-10-31T10:15:48;13.63;;;8.10;;
5391;SDS011;2719;53.624;9.786;2022-10-31T10:18:28;18.63;;;6.83;;
5391;SDS011;2719;53.624;9.786;2022-10-31T10:21:15;14.63;;;7.17;;
5391;SDS011;2719;53.624;9.786;2022-10-31T10:23:52;17.10;;;9.13;;
5391;SDS011;2719;53.624;9.786;2022-10-31T10:26:28;11.07;;;7.30;;
5391;SDS011;2719;53.624;9.786;2022-10-31T10:29:01;18.13;;;7.80;;
5391;SDS011;2719;53.624;9.786;2022-10-31T10:31:35;18.73;;;7.90;;
5391;SDS011;2719;53.624;9.786;2022-10-31T10:34:07;15.90;;;7.23;;
5391;SDS011;2719;53.624;9.786;2022-10-31T10:36:40;17.73;;;7.33;;
5391;SDS011;2719;53.624;9.786;2022-10-31T10:39:10;15.77;;;7.07;;
5391;SDS011;2719;53.624;9.786;2022-10-31T10:41:42;9.50;;;5.77;;
5391;SDS011;2719;53.624;9.786;2022-10-31T10:44:26;14.50;;;7.30;;
5391;SDS011;2719;53.624;9.786;2022-10-31T10:47:11;14.43;;;6.20;;
5391;SDS011;2719;53.624;9.786;2022-10-31T10:49:57;16.90;;;7.27;;
5391;SDS011;2719;53.624;9.786;2022-10-31T10:52:26;17.93;;;7.37;;
5391;SDS011;2719;53.624;9.786;2022-10-31T10:55:03;13.60;;;7.50;;
5391;SDS011;2719;53.624;9.786;2022-10-31T10:57:41;11.63;;;6.57;;
5391;SDS011;2719;53.624;9.786;2022-10-31T11:00:19;14.03;;;7.37;;
5391;SDS011;2719;53.624;9.786;2022-10-31T11:02:47;16.30;;;7.87;;
5391;SDS011;2719;53.624;9.786;2022-10-31T11:05:20;14.60;;;7.40;;
5391;SDS011;2719;53.624;9.786;2022-10-31T11:07:50;20.50;;;9.07;;
5391;SDS011;2719;53.624;9.786;2022-10-31T11:10:16;18.67;;;7.30;;
5391;SDS011;2719;53.624;9.786;2022-10-31T11:12:44;18.93;;;9.70;;
5391;SDS011;2719;53.624;9.786;2022-10-31T11:15:23;20.87;;;8.13;;
5391;SDS011;2719;53.624;9.786;2022-10-31T11:17:52;9.40;;;5.67;;
5391;SDS011;2719;53.624;9.786;2022-10-31T11:20:27;12.93;;;7.07;;
5391;SDS011;2719;53.624;9.786;2022-10-31T11:23:04;18.23;;;6.33;;
5391;SDS011;2719;53.624;9.786;2022-10-31T11:25:47;14.40;;;5.90;;
5391;SDS011;2719;53.624;9.786;2022-10-31T11:28:15;13.40;;;5.87;;
5391;SDS011;2719;53.624;9.786;2022-10-31T11:30:42;13.20;;;5.90;;
5391;SDS011;2719;53.624;9.786;2022-10-31T11:33:13;11.03;;;6.27;;
5391;SDS011;2719;53.624;9.786;2022-10-31T11:35:45;13.80;;;3.60;;
5391;SDS011;2719;53.624;9.786;2022-10-31T11:38:15;8.63;;;5.67;;
5391;SDS011;2719;53.624;9.786;2022-10-31T11:40:51;12.63;;;6.47;;
5391;SDS011;2719;53.624;9.786;2022-10-31T11:43:22;13.03;;;6.33;;
5391;SDS011;2719;53.624;9.786;2022-10-31T11:45:49;11.47;;;6.90;;
5391;SDS011;2719;53.624;9.786;2022-10-31T11:48:16;15.53;;;7.37;;
5391;SDS011;2719;53.624;9.786;2022-10-31T11:50:49;10.13;;;6.07;;
5391;SDS011;2719;53.624;9.786;2022-10-31T11:53:17;12.90;;;6.10;;
5391;SDS011;2719;53.624;9.786;2022-10-31T11:55:46;14.07;;;5.50;;
5391;SDS011;2719;53.624;9.786;2022-10-31T11:58:25;12.50;;;6.50;;
5391;SDS011;2719;53.624;9.786;2022-10-31T12:00:53;17.23;;;8.03;;
5391;SDS011;2719;53.624;9.786;2022-10-31T12:03:32;14.67;;;7.70;;
5391;SDS011;2719;53.624;9.786;2022-10-31T12:06:13;14.20;;;6.77;;
5391;SDS011;2719;53.624;9.786;2022-10-31T12:08:45;13.57;;;7.20;;
5391;SDS011;2719;53.624;9.786;2022-10-31T12:11:17;16.67;;;8.60;;
5391;SDS011;2719;53.624;9.786;2022-10-31T12:14:00;21.50;;;7.83;;
5391;SDS011;2719;53.624;9.786;2022-10-31T12:16:35;15.13;;;8.90;;
5391;SDS011;2719;53.624;9.786;2022-10-31T12:19:08;15.90;;;8.60;;
5391;SDS011;2719;53.624;9.786;2022-10-31T12:24:47;22.00;;;9.90;;
5391;SDS011;2719;53.624;9.786;2022-10-31T12:27:29;19.23;;;9.97;;
5391;SDS011;2719;53.624;9.786;2022-10-31T12:30:13;19.20;;;8.33;;
5391;SDS011;2719;53.624;9.786;2022-10-31T12:32:55;16.53;;;8.50;;
5391;SDS011;2719;53.624;9.786;2022-10-31T12:35:51;16.50;;;7.57;;
5391;SDS011;2719;53.624;9.786;2022-10-31T12:38:41;14.03;;;7.73;;
5391;SDS011;2719;53.624;9.786;2022-10-31T12:41:28;15.20;;;8.43;;
5391;SDS011;2719;53.624;9.786;2022-10-31T12:44:12;21.83;;;7.57;;
5391;SDS011;2719;53.624;9.786;2022-10-31T12:46:54;14.70;;;7.17;;
5391;SDS011;2719;53.624;9.786;2022-10-31T12:49:38;17.60;;;7.50;;
5391;SDS011;2719;53.624;9.786;2022-10-31T12:52:16;19.80;;;7.53;;
5391;SDS011;2719;53.624;9.786;2022-10-31T12:55:00;14.60;;;7.57;;
5391;SDS011;2719;53.624;9.786;2022-10-31T12:57:35;17.83;;;6.43;;
5391;SDS011;2719;53.624;9.786;2022-10-31T13:00:10;17.60;;;7.33;;
5391;SDS011;2719;53.624;9.786;2022-10-31T13:02:42;17.70;;;8.77;;
5391;SDS011;2719;53.624;9.786;2022-10-31T13:05:14;14.93;;;9.03;;
5391;SDS011;2719;53.624;9.786;2022-10-31T13:07:46;16.10;;;8.60;;
5391;SDS011;2719;53.624;9.786;2022-10-31T13:10:18;18.17;;;9.53;;
5391;SDS011;2719;53.624;9.786;2022-10-31T13:12:49;20.17;;;10.63;;
5391;SDS011;2719;53.624;9.786;2022-10-31T13:15:20;20.40;;;9.90;;
5391;SDS011;2719;53.624;9.786;2022-10-31T13:17:50;20.50;;;10.20;;
5391;SDS011;2719;53.624;9.786;2022-10-31T13:20:21;20.47;;;11.40;;
5391;SDS011;2719;53.624;9.786;2022-10-31T13:22:52;26.37;;;13.60;;
5391;SDS011;2719;53.624;9.786;2022-10-31T13:25:24;27.70;;;12.07;;
5391;SDS011;2719;53.624;9.786;2022-10-31T13:27:55;20.93;;;12.40;;
5391;SDS011;2719;53.624;9.786;2022-10-31T13:30:25;26.17;;;13.83;;
5391;SDS011;2719;53.624;9.786;2022-10-31T13:32:55;23.77;;;11.47;;
5391;SDS011;2719;53.624;9.786;2022-10-31T13:35:26;26.77;;;12.80;;
5391;SDS011;2719;53.624;9.786;2022-10-31T13:38:09;25.23;;;13.33;;
5391;SDS011;2719;53.624;9.786;2022-10-31T13:40:44;23.27;;;12.87;;
5391;SDS011;2719;53.624;9.786;2022-10-31T13:43:19;29.00;;;13.83;;
5391;SDS011;2719;53.624;9.786;2022-10-31T13:45:53;25.90;;;12.10;;
5391;SDS011;2719;53.624;9.786;2022-10-31T13:48:34;28.03;;;13.37;;
5391;SDS011;2719;53.624;9.786;2022-10-31T13:51:04;26.93;;;12.00;;
5391;SDS011;2719;53.624;9.786;2022-10-31T13:53:36;30.30;;;14.63;;
5391;SDS011;2719;53.624;9.786;2022-10-31T13:56:16;27.57;;;14.40;;
5391;SDS011;2719;53.624;9.786;2022-10-31T13:59:03;26.50;;;14.27;;
5391;SDS011;2719;53.624;9.786;2022-10-31T14:01:45;31.30;;;14.20;;
5391;SDS011;2719;53.624;9.786;2022-10-31T14:04:14;33.40;;;14.83;;
5391;SDS011;2719;53.624;9.786;2022-10-31T14:06:44;34.50;;;16.07;;
5391;SDS011;2719;53.624;9.786;2022-10-31T14:09:21;30.93;;;15.30;;
5391;SDS011;2719;53.624;9.786;2022-10-31T14:11:53;28.57;;;14.10;;
5391;SDS011;2719;53.624;9.786;2022-10-31T14:14:22;31.03;;;15.20;;
5391;SDS011;2719;53.624;9.786;2022-10-31T14:16:53;33.30;;;15.97;;
5391;SDS011;2719;53.624;9.786;2022-10-31T14:19:22;27.23;;;14.70;;
5391;SDS011;2719;53.624;9.786;2022-10-31T14:21:49;29.40;;;15.40;;
5391;SDS011;2719;53.624;9.786;2022-10-31T14:24:30;29.93;;;15.90;;
5391;SDS011;2719;53.624;9.786;2022-10-31T14:27:03;26.73;;;13.80;;
5391;SDS011;2719;53.624;9.786;2022-10-31T14:29:47;27.97;;;14.40;;
5391;SDS011;2719;53.624;9.786;2022-10-31T14:32:17;23.40;;;14.17;;
5391;SDS011;2719;53.624;9.786;2022-10-31T14:34:51;27.40;;;13.40;;
5391;SDS011;2719;53.624;9.786;2022-10-31T14:37:24;27.43;;;12.93;;
5391;SDS011;2719;53.624;9.786;2022-10-31T14:43:11;22.97;;;14.40;;
5391;SDS011;2719;53.624;9.786;2022-10-31T14:46:06;23.10;;;12.97;;
5391;SDS011;2719;53.624;9.786;2022-10-31T14:48:49;25.20;;;12.70;;
5391;SDS011;2719;53.624;9.786;2022-10-31T14:51:30;27.33;;;12.80;;
5391;SDS011;2719;53.624;9.786;2022-10-31T14:54:02;32.37;;;13.57;;
5391;SDS011;2719;53.624;9.786;2022-10-31T14:56:33;29.50;;;14.20;;
5391;SDS011;2719;53.624;9.786;2022-10-31T14:59:04;27.80;;;13.77;;
5391;SDS011;2719;53.624;9.786;2022-10-31T15:01:35;27.40;;;14.47;;
5391;SDS011;2719;53.624;9.786;2022-10-31T15:04:05;26.13;;;13.43;;
5391;SDS011;2719;53.624;9.786;2022-10-31T15:06:40;44.37;;;20.77;;
5391;SDS011;2719;53.624;9.786;2022-10-31T15:09:20;28.43;;;15.13;;
5391;SDS011;2719;53.624;9.786;2022-10-31T15:11:48;27.13;;;14.93;;
5391;SDS011;2719;53.624;9.786;2022-10-31T15:14:22;25.83;;;13.60;;
5391;SDS011;2719;53.624;9.786;2022-10-31T15:16:51;19.23;;;11.43;;
5391;SDS011;2719;53.624;9.786;2022-10-31T15:19:20;24.07;;;12.97;;
5391;SDS011;2719;53.624;9.786;2022-10-31T15:21:49;24.23;;;11.93;;
5391;SDS011;2719;53.624;9.786;2022-10-31T15:24:17;25.57;;;12.13;;
5391;SDS011;2719;53.624;9.786;2022-10-31T15:26:46;21.13;;;10.87;;